createdAt,value
2022-12-17T00:02:28.593Z,-2.95
2022-12-17T00:05:13.997Z,-2.93
2022-12-17T00:07:59.314Z,-3.01
2022-12-17T00:10:44.726Z,-2.95
2022-12-17T00:13:39.007Z,-3.19
2022-12-17T00:16:25.642Z,-3.19
2022-12-17T00:19:10.109Z,-3.17
2022-12-17T00:21:56.382Z,-3.13
2022-12-17T00:24:41.854Z,-3.03
2022-12-17T00:27:27.389Z,-3.10
2022-12-17T00:30:13.985Z,-1.08
2022-12-17T00:32:59.520Z,-1.55
2022-12-17T00:35:44.894Z,-1.86
2022-12-17T00:38:36.129Z,-2.00
2022-12-17T00:41:21.746Z,-2.43
2022-12-17T00:44:07.062Z,-2.31
2022-12-17T00:46:53.577Z,-2.34
2022-12-17T00:49:38.983Z,-2.48
2022-12-17T00:52:24.376Z,-2.56
2022-12-17T00:55:10.147Z,-2.32
2022-12-17T00:57:55.336Z,-2.31
2022-12-17T01:00:41.535Z,-2.42
2022-12-17T01:03:30.638Z,-2.00
2022-12-17T01:06:20.106Z,-2.04
2022-12-17T01:09:05.422Z,-2.10
2022-12-17T01:11:50.764Z,-1.97
2022-12-17T01:14:37.542Z,-2.18
2022-12-17T01:17:22.871Z,-2.00
2022-12-17T01:20:09.717Z,-1.97
2022-12-17T01:22:54.267Z,-2.31
2022-12-17T01:25:42.011Z,-2.36
2022-12-17T01:28:27.103Z,-2.46
2022-12-17T01:31:15.005Z,-2.30
2022-12-17T01:34:00.116Z,-2.46
2022-12-17T01:36:46.557Z,-2.55
2022-12-17T01:39:31.695Z,-2.78
2022-12-17T01:42:17.155Z,-2.73
2022-12-17T01:45:07.346Z,-2.55
2022-12-17T01:47:57.457Z,-2.51
2022-12-17T01:50:44.843Z,-2.75
2022-12-17T01:53:34.008Z,-2.58
2022-12-17T01:56:19.437Z,-2.60
2022-12-17T01:59:05.696Z,-2.54
2022-12-17T02:01:50.948Z,-2.63
2022-12-17T02:04:36.936Z,-2.65
2022-12-17T02:07:43.848Z,-2.58
2022-12-17T02:10:41.554Z,-2.54
2022-12-17T02:13:34.389Z,-2.69
2022-12-17T02:16:27.390Z,-2.58
2022-12-17T02:19:17.702Z,-2.58
2022-12-17T02:22:06.081Z,-2.67
2022-12-17T02:24:58.953Z,-2.51
2022-12-17T02:27:46.829Z,-2.59
2022-12-17T02:30:32.598Z,-2.81
2022-12-17T02:33:19.179Z,-2.85
2022-12-17T02:36:11.597Z,-2.92
2022-12-17T02:38:56.918Z,-2.66
2022-12-17T02:41:47.391Z,-2.76
2022-12-17T02:44:38.938Z,-2.80
2022-12-17T02:47:28.564Z,-3.04
2022-12-17T02:50:14.887Z,-3.00
2022-12-17T02:53:04.619Z,-2.91
2022-12-17T02:55:50.468Z,-2.97
2022-12-17T02:58:36.046Z,-2.86
2022-12-17T03:01:24.279Z,-3.17
2022-12-17T03:04:09.477Z,-3.08
2022-12-17T03:06:54.890Z,-3.07
2022-12-17T03:09:40.037Z,-3.40
2022-12-17T03:12:37.714Z,-3.30
2022-12-17T03:15:23.707Z,-3.12
2022-12-17T03:18:10.308Z,-3.12
2022-12-17T03:20:55.847Z,-3.04
2022-12-17T03:23:41.251Z,-3.18
2022-12-17T03:26:41.172Z,-3.14
2022-12-17T03:29:26.612Z,-3.03
2022-12-17T03:32:12.069Z,-3.09
2022-12-17T03:34:58.766Z,-3.29
2022-12-17T03:37:44.113Z,-3.26
2022-12-17T03:40:29.952Z,-2.96
2022-12-17T03:43:15.396Z,-2.98
2022-12-17T03:46:06.207Z,-3.13
2022-12-17T03:48:51.469Z,-2.97
2022-12-17T03:51:38.158Z,-3.12
2022-12-17T03:54:23.818Z,-3.21
2022-12-17T03:57:14.509Z,-3.56
2022-12-17T04:00:01.190Z,-3.35
2022-12-17T04:02:46.675Z,-3.10
2022-12-17T04:05:32.147Z,-2.96
2022-12-17T04:08:18.552Z,-3.01
2022-12-17T04:11:04.061Z,-3.18
2022-12-17T04:13:49.226Z,-3.07
2022-12-17T04:16:34.523Z,-3.07
2022-12-17T04:19:19.875Z,-2.91
2022-12-17T04:22:05.461Z,-2.96
2022-12-17T04:24:52.117Z,-3.12
2022-12-17T04:27:37.284Z,-2.93
2022-12-17T04:30:23.779Z,-3.01
2022-12-17T04:33:08.830Z,-2.89
2022-12-17T04:36:08.914Z,-2.81
2022-12-17T04:38:54.290Z,-3.08
2022-12-17T04:41:41.066Z,-3.06
2022-12-17T04:44:26.498Z,-3.07
2022-12-17T04:47:11.696Z,-3.34
2022-12-17T04:49:56.889Z,-3.40
2022-12-17T04:52:42.203Z,-3.61
2022-12-17T04:55:27.593Z,-3.48
2022-12-17T04:58:19.920Z,-3.36
2022-12-17T05:01:05.624Z,-3.18
2022-12-17T05:03:50.980Z,-3.08
2022-12-17T05:06:36.264Z,-3.11
2022-12-17T05:09:23.677Z,-3.45
2022-12-17T05:12:09.150Z,-3.40
2022-12-17T05:14:55.894Z,-3.53
2022-12-17T05:17:41.033Z,-3.71
2022-12-17T05:20:26.983Z,-3.56
2022-12-17T05:23:12.107Z,-3.67
2022-12-17T05:25:57.554Z,-3.80
2022-12-17T05:28:39.231Z,-4.03
2022-12-17T05:31:25.942Z,-3.97
2022-12-17T05:34:11.168Z,-3.96
2022-12-17T05:36:56.283Z,-4.20
2022-12-17T05:39:41.660Z,-4.16
2022-12-17T05:42:26.918Z,-4.21
2022-12-17T05:45:12.435Z,-4.06
2022-12-17T05:47:58.977Z,-4.14
2022-12-17T05:50:44.347Z,-4.40
2022-12-17T05:53:44.281Z,-4.39
2022-12-17T05:56:29.696Z,-4.37
2022-12-17T05:59:15.047Z,-4.46
2022-12-17T06:02:00.552Z,-4.72
2022-12-17T06:04:46.243Z,-4.70
2022-12-17T06:07:31.716Z,-4.75
2022-12-17T06:10:16.769Z,-4.72
2022-12-17T06:13:02.270Z,-4.50
2022-12-17T06:15:47.733Z,-4.29
2022-12-17T06:18:32.882Z,-3.97
2022-12-17T06:21:19.364Z,-3.90
2022-12-17T06:24:04.764Z,-3.90
2022-12-17T06:26:50.257Z,-4.00
2022-12-17T06:29:35.528Z,-4.27
2022-12-17T06:32:20.981Z,-4.90
2022-12-17T06:35:06.310Z,-5.03
2022-12-17T06:37:52.994Z,-5.14
2022-12-17T06:40:38.059Z,-5.04
2022-12-17T06:43:23.453Z,-5.17
2022-12-17T06:46:10.789Z,-4.99
2022-12-17T06:48:56.444Z,-4.96
2022-12-17T06:51:42.146Z,-5.03
2022-12-17T06:54:28.992Z,-5.16
2022-12-17T06:57:14.268Z,-5.45
2022-12-17T06:59:59.609Z,-5.62
2022-12-17T07:02:45.380Z,-5.62
2022-12-17T07:05:30.710Z,-5.94
2022-12-17T07:08:16.674Z,-5.84
2022-12-17T07:11:03.755Z,-5.87
2022-12-17T07:13:48.978Z,-5.74
2022-12-17T07:16:34.586Z,-5.71
2022-12-17T07:19:25.332Z,-5.80
2022-12-17T07:22:12.317Z,-5.86
2022-12-17T07:24:57.678Z,-5.78
2022-12-17T07:27:44.302Z,-5.80
2022-12-17T07:30:30.641Z,-5.87
2022-12-17T07:33:19.117Z,-5.69
2022-12-17T07:36:04.561Z,-5.45
2022-12-17T07:38:49.847Z,-5.42
2022-12-17T07:41:35.492Z,-5.43
2022-12-17T07:44:23.583Z,-5.19
2022-12-17T07:47:09.169Z,-4.90
2022-12-17T07:49:54.992Z,-4.91
2022-12-17T07:52:40.413Z,-5.26
2022-12-17T07:55:26.333Z,-5.24
2022-12-17T07:58:17.331Z,-5.15
2022-12-17T08:01:04.073Z,-5.15
2022-12-17T08:03:49.156Z,-5.07
2022-12-17T08:06:35.017Z,-5.07
2022-12-17T08:09:20.595Z,-5.02
2022-12-17T08:12:05.919Z,-4.92
2022-12-17T08:14:51.544Z,-4.62
2022-12-17T08:17:37.963Z,-4.63
2022-12-17T08:20:24.654Z,-4.57
2022-12-17T08:23:10.006Z,-4.45
2022-12-17T08:25:51.632Z,-4.57
2022-12-17T08:28:51.871Z,-4.23
2022-12-17T08:31:37.261Z,-3.83
2022-12-17T08:34:24.307Z,-4.03
2022-12-17T08:37:09.699Z,-4.14
2022-12-17T08:39:55.398Z,-3.81
2022-12-17T08:42:40.875Z,-3.96
2022-12-17T08:45:27.237Z,-4.21
2022-12-17T08:48:12.673Z,-4.80
2022-12-17T08:50:59.203Z,-4.70
2022-12-17T08:53:44.463Z,-4.21
2022-12-17T08:56:29.967Z,-4.17
2022-12-17T08:59:20.700Z,-3.83
2022-12-17T09:02:06.088Z,-3.82
2022-12-17T09:04:51.540Z,-3.78
2022-12-17T09:07:34.549Z,-3.78
2022-12-17T09:10:20.093Z,-4.17
2022-12-17T09:13:05.472Z,-3.80
2022-12-17T09:15:51.153Z,-3.82
2022-12-17T09:18:37.619Z,-3.39
2022-12-17T09:21:23.284Z,-3.44
2022-12-17T09:24:10.139Z,-3.86
2022-12-17T09:26:55.594Z,-3.67
2022-12-17T09:29:40.959Z,-3.33
2022-12-17T09:32:26.510Z,-2.99
2022-12-17T09:35:11.826Z,-3.20
2022-12-17T09:37:57.265Z,-3.63
2022-12-17T09:40:43.892Z,-3.46
2022-12-17T09:43:38.725Z,-2.92
2022-12-17T09:46:29.607Z,-2.84
2022-12-17T09:49:20.353Z,-2.67
2022-12-17T09:52:05.706Z,-2.55
2022-12-17T09:55:00.781Z,-2.55
2022-12-17T09:57:51.928Z,-2.48
2022-12-17T10:00:39.395Z,-2.09
2022-12-17T10:03:30.579Z,-2.04
2022-12-17T10:06:22.484Z,-2.01
2022-12-17T10:09:15.704Z,-2.37
2022-12-17T10:12:01.001Z,-2.09
2022-12-17T10:14:47.956Z,-2.02
2022-12-17T10:17:36.864Z,-2.14
2022-12-17T10:20:32.682Z,-2.29
2022-12-17T10:23:18.127Z,-2.54
2022-12-17T10:26:05.937Z,-2.09
2022-12-17T10:28:51.506Z,-2.08
2022-12-17T10:31:36.674Z,-2.33
2022-12-17T10:34:25.861Z,-2.61
2022-12-17T10:37:11.934Z,-2.90
2022-12-17T10:39:59.182Z,-2.37
2022-12-17T10:42:46.229Z,-2.28
2022-12-17T10:45:57.344Z,-2.38
2022-12-17T10:48:46.192Z,-2.16
2022-12-17T10:51:39.050Z,-2.18
2022-12-17T10:54:31.866Z,-1.98
2022-12-17T10:57:20.784Z,-1.88
2022-12-17T11:00:08.184Z,-1.99
2022-12-17T11:02:53.633Z,-2.15
2022-12-17T11:05:45.519Z,-1.97
2022-12-17T11:08:33.673Z,-1.97
2022-12-17T11:11:22.430Z,-1.86
2022-12-17T11:14:10.220Z,-1.61
2022-12-17T11:17:01.754Z,-1.43
2022-12-17T11:20:10.754Z,-1.64
2022-12-17T11:23:02.998Z,-1.68
2022-12-17T11:25:58.070Z,-1.43
2022-12-17T11:28:51.822Z,-1.32
2022-12-17T11:32:03.607Z,-1.12
2022-12-17T11:35:01.093Z,-0.99
2022-12-17T11:37:56.007Z,-1.14
2022-12-17T11:40:52.471Z,-1.32
2022-12-17T11:43:45.801Z,-1.54
2022-12-17T11:46:42.475Z,-1.47
2022-12-17T11:49:40.732Z,-1.32
2022-12-17T11:52:35.242Z,-1.09
2022-12-17T11:55:34.045Z,-0.89
2022-12-17T11:58:36.392Z,-0.82
2022-12-17T12:01:32.064Z,-0.71
2022-12-17T12:04:29.132Z,-0.84
2022-12-17T12:07:25.104Z,-0.97
2022-12-17T12:10:16.080Z,-1.33
2022-12-17T12:13:13.102Z,-1.27
2022-12-17T12:16:10.918Z,-1.46
2022-12-17T12:19:05.000Z,-1.64
2022-12-17T12:22:09.554Z,-1.61
2022-12-17T12:25:11.615Z,-1.73
2022-12-17T12:28:03.974Z,-1.77
2022-12-17T12:30:57.722Z,-1.78
2022-12-17T12:33:52.613Z,-1.60
2022-12-17T12:36:40.538Z,-1.54
2022-12-17T12:39:31.664Z,-1.54
2022-12-17T12:42:21.689Z,-1.66
2022-12-17T12:45:17.170Z,-1.61
2022-12-17T12:48:09.412Z,-1.76
2022-12-17T12:51:07.358Z,-1.84
2022-12-17T12:53:52.748Z,-1.73
2022-12-17T12:56:51.741Z,-1.40
2022-12-17T12:59:47.087Z,-1.23
2022-12-17T13:02:45.625Z,-1.37
2022-12-17T13:05:35.473Z,-1.48
2022-12-17T13:08:18.638Z,-1.70
2022-12-17T13:10:46.913Z,-1.81
2022-12-17T13:13:26.858Z,-1.89
2022-12-17T13:15:56.257Z,-1.91
2022-12-17T13:18:29.787Z,-1.98
2022-12-17T13:21:00.408Z,-2.16
2022-12-17T13:23:35.410Z,-2.10
2022-12-17T13:26:24.423Z,-1.80
2022-12-17T13:29:12.477Z,-1.74
2022-12-17T13:32:02.225Z,-1.70
2022-12-17T13:34:41.876Z,-2.01
2022-12-17T13:37:19.305Z,-1.75
2022-12-17T13:39:59.074Z,-1.70
2022-12-17T13:42:29.755Z,-1.17
2022-12-17T13:44:58.982Z,-0.82
2022-12-17T13:47:28.746Z,-0.56
2022-12-17T13:50:32.277Z,-0.79
2022-12-17T13:52:46.332Z,-0.57
2022-12-17T13:55:21.072Z,-0.38
2022-12-17T13:57:51.571Z,-0.48
2022-12-17T14:00:22.307Z,-0.75
2022-12-17T14:02:50.953Z,-0.88
2022-12-17T14:05:28.667Z,-0.85
2022-12-17T14:07:59.600Z,-0.95
2022-12-17T14:10:31.067Z,-0.72
2022-12-17T14:13:06.574Z,-0.80
2022-12-17T14:15:35.627Z,-0.84
2022-12-17T14:18:03.852Z,-0.81
2022-12-17T14:20:33.469Z,-0.95
2022-12-17T14:23:04.424Z,-1.23
2022-12-17T14:25:37.899Z,-1.48
2022-12-17T14:28:08.274Z,-1.44
2022-12-17T14:30:46.373Z,-1.53
2022-12-17T14:33:28.717Z,-1.60
2022-12-17T14:36:02.015Z,-1.52
2022-12-17T14:38:38.800Z,-1.61
2022-12-17T14:41:26.660Z,-1.76
2022-12-17T14:43:59.829Z,-1.72
2022-12-17T14:46:29.903Z,-1.84
2022-12-17T14:49:05.837Z,-2.00
2022-12-17T14:51:37.643Z,-2.22
2022-12-17T14:54:19.510Z,-2.41
2022-12-17T14:56:51.961Z,-2.82
2022-12-17T14:59:24.393Z,-2.87
2022-12-17T15:01:56.252Z,-3.12
2022-12-17T15:04:24.653Z,-3.27
2022-12-17T15:06:55.577Z,-3.34
2022-12-17T15:09:23.541Z,-3.31
2022-12-17T15:11:52.741Z,-3.38
2022-12-17T15:14:20.490Z,-3.39
2022-12-17T15:16:48.335Z,-3.26
2022-12-17T15:19:16.175Z,-3.34
2022-12-17T15:21:43.933Z,-3.48
2022-12-17T15:24:15.494Z,-3.55
2022-12-17T15:26:43.294Z,-3.47
2022-12-17T15:29:12.431Z,-3.42
2022-12-17T15:31:40.429Z,-3.40
2022-12-17T15:34:08.249Z,-3.37
2022-12-17T15:36:36.121Z,-3.44
2022-12-17T15:39:06.182Z,-3.60
2022-12-17T15:41:47.847Z,-3.66
2022-12-17T15:44:16.949Z,-3.84
2022-12-17T15:46:44.894Z,-3.93
2022-12-17T15:49:12.669Z,-3.98
2022-12-17T15:51:40.440Z,-4.04
2022-12-17T15:54:08.217Z,-4.18
2022-12-17T15:56:37.168Z,-4.30
2022-12-17T15:59:05.005Z,-4.39
2022-12-17T16:01:34.261Z,-4.44
2022-12-17T16:04:02.117Z,-4.44
2022-12-17T16:06:29.852Z,-4.29
2022-12-17T16:08:57.584Z,-4.17
2022-12-17T16:11:25.330Z,-4.16
2022-12-17T16:13:55.102Z,-4.14
2022-12-17T16:16:23.033Z,-3.96
2022-12-17T16:18:53.223Z,-3.85
2022-12-17T16:21:21.029Z,-3.73
2022-12-17T16:23:48.777Z,-3.65
2022-12-17T16:26:16.575Z,-3.59
2022-12-17T16:28:44.389Z,-3.51
2022-12-17T16:31:14.684Z,-3.45
2022-12-17T16:33:44.307Z,-3.48
2022-12-17T16:36:15.573Z,-3.51
2022-12-17T16:38:45.475Z,-3.50
2022-12-17T16:41:14.797Z,-3.46
2022-12-17T16:43:43.240Z,-3.39
2022-12-17T16:46:26.454Z,-3.42
2022-12-17T16:48:55.104Z,-3.47
2022-12-17T16:51:29.582Z,-3.52
2022-12-17T16:53:58.395Z,-3.40
2022-12-17T16:56:28.888Z,-3.39
2022-12-17T16:58:56.884Z,-3.48
2022-12-17T17:01:27.952Z,-3.48
2022-12-17T17:03:56.176Z,-3.49
2022-12-17T17:06:31.729Z,-3.50
2022-12-17T17:09:04.296Z,-3.45
2022-12-17T17:11:32.328Z,-3.42
2022-12-17T17:14:00.543Z,-3.40
2022-12-17T17:16:28.904Z,-3.41
2022-12-17T17:18:57.034Z,-3.39
2022-12-17T17:21:29.126Z,-3.46
2022-12-17T17:23:59.738Z,-3.58
2022-12-17T17:26:29.162Z,-3.68
2022-12-17T17:28:57.246Z,-3.59
2022-12-17T17:31:46.416Z,-3.60
2022-12-17T17:34:15.665Z,-3.47
2022-12-17T17:36:44.887Z,-3.53
2022-12-17T17:39:12.639Z,-3.66
2022-12-17T17:41:40.455Z,-3.64
2022-12-17T17:44:09.960Z,-3.73
2022-12-17T17:46:38.492Z,-3.72
2022-12-17T17:49:08.758Z,-3.60
2022-12-17T17:52:08.536Z,-3.61
2022-12-17T17:54:27.940Z,-3.62
2022-12-17T17:56:56.479Z,-3.59
2022-12-17T17:59:30.933Z,-3.60
2022-12-17T18:02:01.124Z,-3.75
2022-12-17T18:04:29.707Z,-3.75
2022-12-17T18:09:46.710Z,-3.57
2022-12-17T18:12:31.968Z,-3.57
2022-12-17T18:15:17.240Z,-3.57
2022-12-17T18:17:47.063Z,-3.60
2022-12-17T18:20:15.156Z,-3.59
2022-12-17T18:22:46.817Z,-3.65
2022-12-17T18:25:16.294Z,-3.59
2022-12-17T18:27:44.250Z,-3.45
2022-12-17T18:30:12.701Z,-3.49
2022-12-17T18:32:40.451Z,-3.59
2022-12-17T18:35:09.220Z,-3.65
2022-12-17T18:37:37.016Z,-3.56
2022-12-17T18:40:05.108Z,-3.66
2022-12-17T18:42:51.829Z,-3.77
2022-12-17T18:45:19.688Z,-3.92
2022-12-17T18:47:47.533Z,-4.14
2022-12-17T18:50:15.322Z,-4.10
2022-12-17T18:52:43.068Z,-4.11
2022-12-17T18:55:10.846Z,-3.98
2022-12-17T18:57:39.960Z,-3.95
2022-12-17T19:00:10.515Z,-3.88
2022-12-17T19:02:38.463Z,-3.82
2022-12-17T19:05:06.783Z,-3.75
2022-12-17T19:07:34.607Z,-3.74
2022-12-17T19:10:02.353Z,-3.71
2022-12-17T19:12:30.107Z,-3.71
2022-12-17T19:15:00.380Z,-3.66
2022-12-17T19:17:28.105Z,-3.66
2022-12-17T19:19:55.872Z,-3.74
2022-12-17T19:22:23.673Z,-3.71
2022-12-17T19:24:51.559Z,-3.79
2022-12-17T19:27:19.365Z,-3.96
2022-12-17T19:29:49.683Z,-4.09
2022-12-17T19:32:19.253Z,-4.03
2022-12-17T19:34:47.004Z,-4.12
2022-12-17T19:37:14.785Z,-4.19
2022-12-17T19:39:42.629Z,-4.11
2022-12-17T19:42:24.622Z,-3.99
2022-12-17T19:44:56.592Z,-3.99
2022-12-17T19:47:25.873Z,-3.93
2022-12-17T19:49:53.777Z,-4.02
2022-12-17T19:52:21.623Z,-4.03
2022-12-17T19:54:49.972Z,-4.03
2022-12-17T19:57:17.845Z,-3.99
2022-12-17T19:59:45.761Z,-4.09
2022-12-17T20:02:15.617Z,-4.09
2022-12-17T20:04:45.092Z,-4.14
2022-12-17T20:07:12.905Z,-4.16
2022-12-17T20:09:44.015Z,-4.26
2022-12-17T20:12:12.056Z,-4.42
2022-12-17T20:14:39.873Z,-4.35
2022-12-17T20:17:07.856Z,-4.25
2022-12-17T20:19:35.695Z,-4.37
2022-12-17T20:22:06.262Z,-4.41
2022-12-17T20:24:34.162Z,-4.35
2022-12-17T20:27:02.261Z,-4.36
2022-12-17T20:29:30.338Z,-4.18
2022-12-17T20:31:58.412Z,-4.14
2022-12-17T20:34:26.409Z,-4.12
2022-12-17T20:36:54.634Z,-4.18
2022-12-17T20:39:27.674Z,-4.25
2022-12-17T20:41:56.213Z,-4.37
2022-12-17T20:44:23.987Z,-4.25
2022-12-17T20:46:51.814Z,-4.07
2022-12-17T20:49:19.738Z,-4.07
2022-12-17T20:51:47.632Z,-4.11
2022-12-17T20:54:15.391Z,-4.12
2022-12-17T20:56:44.689Z,-3.99
2022-12-17T20:59:15.685Z,-4.25
2022-12-17T21:01:43.804Z,-4.29
2022-12-17T21:04:13.023Z,-4.34
2022-12-17T21:06:42.493Z,-4.39
2022-12-17T21:09:11.676Z,-4.46
2022-12-17T21:11:40.897Z,-4.40
2022-12-17T21:14:13.189Z,-4.33
2022-12-17T21:16:42.517Z,-4.18
2022-12-17T21:19:13.809Z,-4.07
2022-12-17T21:21:41.832Z,-3.86
2022-12-17T21:24:10.470Z,-3.93
2022-12-17T21:26:40.363Z,-3.95
2022-12-17T21:29:11.243Z,-4.02
2022-12-17T21:31:41.341Z,-4.03
2022-12-17T21:34:12.496Z,-4.17
2022-12-17T21:36:40.832Z,-4.21
2022-12-17T21:39:09.911Z,-4.32
2022-12-17T21:41:40.158Z,-4.28
2022-12-17T21:44:15.670Z,-4.31
2022-12-17T21:46:49.918Z,-4.23
2022-12-17T21:49:18.205Z,-4.19
2022-12-17T21:51:46.300Z,-4.20
2022-12-17T21:54:19.387Z,-4.19
2022-12-17T21:56:48.485Z,-4.18
2022-12-17T21:59:18.015Z,-4.19
2022-12-17T22:01:45.953Z,-4.12
2022-12-17T22:04:13.897Z,-4.19
2022-12-17T22:06:47.699Z,-4.20
2022-12-17T22:09:33.533Z,-4.42
2022-12-17T22:12:27.215Z,-4.46
2022-12-17T22:14:56.397Z,-4.37
2022-12-17T22:17:24.666Z,-4.31
2022-12-17T22:19:52.425Z,-4.22
2022-12-17T22:22:20.234Z,-4.22
2022-12-17T22:24:48.023Z,-4.17
2022-12-17T22:27:16.080Z,-4.21
2022-12-17T22:30:01.228Z,-4.15
2022-12-17T22:32:47.845Z,-4.18
2022-12-17T22:36:05.591Z,-4.26
2022-12-17T22:41:43.107Z,-4.40
2022-12-17T22:44:34.119Z,-4.40
2022-12-17T22:44:51.495Z,-4.44
2022-12-17T22:46:28.546Z,-4.39
2022-12-17T22:48:58.419Z,-4.31
2022-12-17T22:51:30.013Z,-4.28
2022-12-17T22:54:08.625Z,-4.37
2022-12-17T22:57:32.482Z,-4.33
2022-12-17T22:59:25.057Z,-4.31
2022-12-17T23:01:53.978Z,-4.28
2022-12-17T23:04:23.386Z,-4.29
2022-12-17T23:06:51.241Z,-4.22
2022-12-17T23:09:20.169Z,-4.08
2022-12-17T23:11:49.267Z,-3.96
2022-12-17T23:14:17.977Z,-3.86
2022-12-17T23:16:46.206Z,-3.81
2022-12-17T23:19:14.187Z,-3.93
2022-12-17T23:21:43.361Z,-3.98
2022-12-17T23:24:11.137Z,-4.04
2022-12-17T23:26:39.896Z,-4.19
2022-12-17T23:29:10.890Z,-4.33
2022-12-17T23:31:41.087Z,-4.41
2022-12-17T23:34:09.765Z,-4.25
2022-12-17T23:36:37.978Z,-4.22
2022-12-17T23:39:07.526Z,-4.19
2022-12-17T23:41:35.380Z,-4.20
2022-12-17T23:44:04.482Z,-4.16
2022-12-17T23:46:32.646Z,-4.16
2022-12-17T23:49:00.557Z,-4.17
2022-12-17T23:51:29.240Z,-4.26
2022-12-17T23:53:56.996Z,-4.26
2022-12-17T23:56:27.924Z,-4.37
2022-12-17T23:58:58.197Z,-4.60
